sensor_id;sensor_type;location;lat;lon;timestamp;pressure;altitude;pressure_sealevel;temperature;humidity
6134;BME280;3098;42.678;23.364;2023-07-31T00:00:41;94579.25;;;21.43;100.00
6134;BME280;3098;42.678;23.364;2023-07-31T00:03:07;94593.53;;;21.37;100.00
6134;BME280;3098;42.678;23.364;2023-07-31T00:05:35;94524.06;;;21.02;100.00
6134;BME280;3098;42.678;23.364;2023-07-31T00:08:02;94598.91;;;21.40;100.00
6134;BME280;3098;42.678;23.364;2023-07-31T00:10:29;94565.38;;;21.16;100.00
6134;BME280;3098;42.678;23.364;2023-07-31T00:12:56;94596.19;;;21.26;100.00
6134;BME280;3098;42.678;23.364;2023-07-31T00:15:25;94540.22;;;20.84;100.00
6134;BME280;3098;42.678;23.364;2023-07-31T00:17:52;94599.28;;;21.32;100.00
6134;BME280;3098;42.678;23.364;2023-07-31T00:20:19;94569.97;;;21.23;100.00
6134;BME280;3098;42.678;23.364;2023-07-31T00:22:46;94573.84;;;21.33;100.00
6134;BME280;3098;42.678;23.364;2023-07-31T00:25:13;94559.97;;;21.16;100.00
6134;BME280;3098;42.678;23.364;2023-07-31T00:27:40;94582.72;;;21.33;100.00
6134;BME280;3098;42.678;23.364;2023-07-31T00:30:10;94548.03;;;21.21;100.00
6134;BME280;3098;42.678;23.364;2023-07-31T00:32:39;94580.41;;;21.39;100.00
6134;BME280;3098;42.678;23.364;2023-07-31T00:35:06;94537.97;;;21.14;100.00
6134;BME280;3098;42.678;23.364;2023-07-31T00:37:33;94564.63;;;21.34;100.00
6134;BME280;3098;42.678;23.364;2023-07-31T00:40:00;94353.25;;;19.88;100.00
6134;BME280;3098;42.678;23.364;2023-07-31T00:42:29;94560.34;;;21.11;100.00
6134;BME280;3098;42.678;23.364;2023-07-31T00:44:55;94554.91;;;21.04;100.00
6134;BME280;3098;42.678;23.364;2023-07-31T00:47:22;94559.50;;;21.00;100.00
6134;BME280;3098;42.678;23.364;2023-07-31T00:49:51;94567.59;;;21.00;100.00
6134;BME280;3098;42.678;23.364;2023-07-31T00:52:18;94572.94;;;20.86;100.00
6134;BME280;3098;42.678;23.364;2023-07-31T00:54:45;94577.94;;;20.77;100.00
6134;BME280;3098;42.678;23.364;2023-07-31T00:57:12;94552.88;;;20.66;100.00
6134;BME280;3098;42.678;23.364;2023-07-31T00:59:40;94511.97;;;20.39;100.00
6134;BME280;3098;42.678;23.364;2023-07-31T01:02:07;94569.47;;;20.82;100.00
6134;BME280;3098;42.678;23.364;2023-07-31T01:04:34;94514.69;;;20.50;100.00
6134;BME280;3098;42.678;23.364;2023-07-31T01:07:09;94397.03;;;19.78;100.00
6134;BME280;3098;42.678;23.364;2023-07-31T01:09:44;94475.78;;;20.37;100.00
6134;BME280;3098;42.678;23.364;2023-07-31T01:12:14;94558.72;;;20.93;100.00
6134;BME280;3098;42.678;23.364;2023-07-31T01:14:51;94517.38;;;20.50;100.00
6134;BME280;3098;42.678;23.364;2023-07-31T01:17:18;94557.50;;;20.73;100.00
6134;BME280;3098;42.678;23.364;2023-07-31T01:19:45;94566.34;;;20.73;100.00
6134;BME280;3098;42.678;23.364;2023-07-31T01:22:32;94552.09;;;20.69;100.00
6134;BME280;3098;42.678;23.364;2023-07-31T01:25:16;94552.81;;;20.55;100.00
6134;BME280;3098;42.678;23.364;2023-07-31T01:27:59;94552.03;;;20.55;100.00
6134;BME280;3098;42.678;23.364;2023-07-31T01:30:32;94173.59;;;18.02;100.00
6134;BME280;3098;42.678;23.364;2023-07-31T01:33:01;94531.53;;;20.26;100.00
6134;BME280;3098;42.678;23.364;2023-07-31T01:35:32;94502.97;;;20.14;100.00
6134;BME280;3098;42.678;23.364;2023-07-31T01:37:59;94464.38;;;19.89;100.00
6134;BME280;3098;42.678;23.364;2023-07-31T01:40:26;94532.25;;;20.23;100.00
6134;BME280;3098;42.678;23.364;2023-07-31T01:42:54;94548.06;;;20.28;100.00
6134;BME280;3098;42.678;23.364;2023-07-31T01:45:22;94548.88;;;20.32;100.00
6134;BME280;3098;42.678;23.364;2023-07-31T01:47:49;94523.69;;;20.10;100.00
6134;BME280;3098;42.678;23.364;2023-07-31T01:50:16;94552.31;;;20.29;100.00
6134;BME280;3098;42.678;23.364;2023-07-31T01:52:43;94494.00;;;19.96;100.00
6134;BME280;3098;42.678;23.364;2023-07-31T01:55:10;94554.19;;;20.25;100.00
6134;BME280;3098;42.678;23.364;2023-07-31T01:57:37;94493.16;;;19.78;100.00
6134;BME280;3098;42.678;23.364;2023-07-31T02:00:07;94539.41;;;20.01;100.00
6134;BME280;3098;42.678;23.364;2023-07-31T02:02:34;94564.09;;;20.10;100.00
6134;BME280;3098;42.678;23.364;2023-07-31T02:05:01;94523.19;;;19.87;100.00
6134;BME280;3098;42.678;23.364;2023-07-31T02:07:27;94562.19;;;20.11;100.00
6134;BME280;3098;42.678;23.364;2023-07-31T02:09:55;94545.50;;;19.91;100.00
6134;BME280;3098;42.678;23.364;2023-07-31T02:12:22;94575.94;;;19.98;100.00
6134;BME280;3098;42.678;23.364;2023-07-31T02:14:49;94581.75;;;20.00;100.00
6134;BME280;3098;42.678;23.364;2023-07-31T02:17:17;94563.53;;;19.83;100.00
6134;BME280;3098;42.678;23.364;2023-07-31T02:19:44;94565.44;;;19.79;100.00
6134;BME280;3098;42.678;23.364;2023-07-31T02:22:11;94557.31;;;19.72;100.00
6134;BME280;3098;42.678;23.364;2023-07-31T02:24:38;94590.13;;;19.95;100.00
6134;BME280;3098;42.678;23.364;2023-07-31T02:27:05;94547.25;;;19.66;100.00
6134;BME280;3098;42.678;23.364;2023-07-31T02:29:32;94511.72;;;19.42;100.00
6134;BME280;3098;42.678;23.364;2023-07-31T02:31:59;94567.03;;;19.91;100.00
6134;BME280;3098;42.678;23.364;2023-07-31T02:34:27;94505.63;;;19.52;100.00
6134;BME280;3098;42.678;23.364;2023-07-31T02:36:54;94586.78;;;20.13;100.00
6134;BME280;3098;42.678;23.364;2023-07-31T02:39:21;94480.59;;;19.41;100.00
6134;BME280;3098;42.678;23.364;2023-07-31T02:41:48;94584.06;;;20.05;100.00
6134;BME280;3098;42.678;23.364;2023-07-31T02:44:15;94532.00;;;19.80;100.00
6134;BME280;3098;42.678;23.364;2023-07-31T02:46:42;94468.66;;;19.39;100.00
6134;BME280;3098;42.678;23.364;2023-07-31T02:49:09;94552.00;;;19.83;100.00
6134;BME280;3098;42.678;23.364;2023-07-31T02:51:38;94595.72;;;20.24;100.00
6134;BME280;3098;42.678;23.364;2023-07-31T02:54:05;94576.41;;;20.11;100.00
6134;BME280;3098;42.678;23.364;2023-07-31T02:56:32;94520.03;;;19.74;100.00
6134;BME280;3098;42.678;23.364;2023-07-31T02:58:59;94598.84;;;20.29;100.00
6134;BME280;3098;42.678;23.364;2023-07-31T03:01:26;94605.03;;;20.33;100.00
6134;BME280;3098;42.678;23.364;2023-07-31T03:03:52;94464.50;;;19.48;100.00
6134;BME280;3098;42.678;23.364;2023-07-31T03:06:20;94587.31;;;20.29;100.00
6134;BME280;3098;42.678;23.364;2023-07-31T03:08:48;94608.19;;;20.49;100.00
6134;BME280;3098;42.678;23.364;2023-07-31T03:11:15;94607.84;;;20.58;100.00
6134;BME280;3098;42.678;23.364;2023-07-31T03:13:42;94582.41;;;20.45;100.00
6134;BME280;3098;42.678;23.364;2023-07-31T03:16:08;94600.59;;;20.66;100.00
6134;BME280;3098;42.678;23.364;2023-07-31T03:18:35;94581.25;;;20.46;100.00
6134;BME280;3098;42.678;23.364;2023-07-31T03:21:02;94557.25;;;20.23;100.00
6134;BME280;3098;42.678;23.364;2023-07-31T03:23:29;94606.81;;;20.77;100.00
6134;BME280;3098;42.678;23.364;2023-07-31T03:25:58;94540.38;;;20.30;100.00
6134;BME280;3098;42.678;23.364;2023-07-31T03:28:25;94612.56;;;20.75;100.00
6134;BME280;3098;42.678;23.364;2023-07-31T03:30:53;94594.44;;;20.65;100.00
6134;BME280;3098;42.678;23.364;2023-07-31T03:33:20;94611.44;;;20.87;100.00
6134;BME280;3098;42.678;23.364;2023-07-31T03:35:46;94619.16;;;20.92;100.00
6134;BME280;3098;42.678;23.364;2023-07-31T03:38:13;94601.38;;;20.70;100.00
6134;BME280;3098;42.678;23.364;2023-07-31T03:40:41;94614.13;;;20.83;100.00
6134;BME280;3098;42.678;23.364;2023-07-31T03:43:09;94628.34;;;20.73;100.00
6134;BME280;3098;42.678;23.364;2023-07-31T03:45:36;94529.13;;;20.21;100.00
6134;BME280;3098;42.678;23.364;2023-07-31T03:48:03;94619.09;;;20.78;100.00
6134;BME280;3098;42.678;23.364;2023-07-31T03:50:31;94628.78;;;20.82;100.00
6134;BME280;3098;42.678;23.364;2023-07-31T03:52:58;94557.44;;;20.51;100.00
6134;BME280;3098;42.678;23.364;2023-07-31T03:55:25;94614.97;;;20.98;100.00
6134;BME280;3098;42.678;23.364;2023-07-31T03:57:52;94618.06;;;21.07;100.00
6134;BME280;3098;42.678;23.364;2023-07-31T04:00:21;94618.91;;;21.18;100.00
6134;BME280;3098;42.678;23.364;2023-07-31T04:02:49;94607.25;;;20.96;100.00
6134;BME280;3098;42.678;23.364;2023-07-31T04:05:16;94583.66;;;20.65;100.00
6134;BME280;3098;42.678;23.364;2023-07-31T04:07:43;94540.47;;;20.47;100.00
6134;BME280;3098;42.678;23.364;2023-07-31T04:10:10;94647.78;;;21.10;100.00
6134;BME280;3098;42.678;23.364;2023-07-31T04:12:37;94648.56;;;21.11;100.00
6134;BME280;3098;42.678;23.364;2023-07-31T04:15:05;94633.19;;;21.22;100.00
6134;BME280;3098;42.678;23.364;2023-07-31T04:17:34;94629.28;;;21.12;100.00
6134;BME280;3098;42.678;23.364;2023-07-31T04:20:01;94430.47;;;19.74;100.00
6134;BME280;3098;42.678;23.364;2023-07-31T04:22:29;94622.69;;;20.99;100.00
6134;BME280;3098;42.678;23.364;2023-07-31T04:24:56;94643.16;;;21.07;100.00
6134;BME280;3098;42.678;23.364;2023-07-31T04:27:23;94638.09;;;21.02;100.00
6134;BME280;3098;42.678;23.364;2023-07-31T04:29:50;94635.06;;;21.07;100.00
6134;BME280;3098;42.678;23.364;2023-07-31T04:32:17;94567.88;;;20.71;100.00
6134;BME280;3098;42.678;23.364;2023-07-31T04:34:46;94545.91;;;20.54;100.00
6134;BME280;3098;42.678;23.364;2023-07-31T04:37:13;94519.56;;;20.23;100.00
6134;BME280;3098;42.678;23.364;2023-07-31T04:39:40;94604.22;;;21.05;100.00
6134;BME280;3098;42.678;23.364;2023-07-31T04:42:08;94638.63;;;21.43;100.00
6134;BME280;3098;42.678;23.364;2023-07-31T04:44:35;94606.50;;;21.06;100.00
6134;BME280;3098;42.678;23.364;2023-07-31T04:47:03;94632.78;;;21.24;100.00
6134;BME280;3098;42.678;23.364;2023-07-31T04:49:31;94628.56;;;21.30;100.00
6134;BME280;3098;42.678;23.364;2023-07-31T04:52:00;94619.69;;;21.22;100.00
6134;BME280;3098;42.678;23.364;2023-07-31T04:54:28;94627.00;;;21.29;100.00
6134;BME280;3098;42.678;23.364;2023-07-31T04:56:55;94632.84;;;21.41;100.00
6134;BME280;3098;42.678;23.364;2023-07-31T04:59:22;94475.06;;;20.61;100.00
6134;BME280;3098;42.678;23.364;2023-07-31T05:01:50;94630.22;;;21.91;100.00
6134;BME280;3098;42.678;23.364;2023-07-31T05:04:17;94630.19;;;22.47;100.00
6134;BME280;3098;42.678;23.364;2023-07-31T05:06:43;94618.28;;;23.38;100.00
6134;BME280;3098;42.678;23.364;2023-07-31T05:09:12;94620.09;;;24.07;100.00
6134;BME280;3098;42.678;23.364;2023-07-31T05:11:39;94594.25;;;24.43;100.00
6134;BME280;3098;42.678;23.364;2023-07-31T05:14:09;94612.69;;;24.18;100.00
6134;BME280;3098;42.678;23.364;2023-07-31T05:16:37;94489.28;;;23.14;100.00
6134;BME280;3098;42.678;23.364;2023-07-31T05:19:04;94623.38;;;24.73;100.00
6134;BME280;3098;42.678;23.364;2023-07-31T05:21:32;94481.41;;;23.41;100.00
6134;BME280;3098;42.678;23.364;2023-07-31T05:24:00;94380.91;;;22.87;100.00
6134;BME280;3098;42.678;23.364;2023-07-31T05:26:30;94275.66;;;22.59;100.00
6134;BME280;3098;42.678;23.364;2023-07-31T05:28:57;94431.03;;;23.51;100.00
6134;BME280;3098;42.678;23.364;2023-07-31T05:31:26;94582.22;;;24.78;100.00
6134;BME280;3098;42.678;23.364;2023-07-31T05:33:53;94585.28;;;24.84;100.00
6134;BME280;3098;42.678;23.364;2023-07-31T05:36:21;94526.47;;;24.77;98.94
6134;BME280;3098;42.678;23.364;2023-07-31T05:38:48;94601.72;;;25.03;100.00
6134;BME280;3098;42.678;23.364;2023-07-31T05:41:16;94534.84;;;23.78;100.00
6134;BME280;3098;42.678;23.364;2023-07-31T05:43:46;94399.38;;;22.34;100.00
6134;BME280;3098;42.678;23.364;2023-07-31T05:46:14;94450.72;;;23.03;100.00
6134;BME280;3098;42.678;23.364;2023-07-31T05:48:42;94413.34;;;23.80;100.00
6134;BME280;3098;42.678;23.364;2023-07-31T05:51:09;94613.34;;;25.04;100.00
6134;BME280;3098;42.678;23.364;2023-07-31T05:53:37;94625.44;;;24.99;99.14
6134;BME280;3098;42.678;23.364;2023-07-31T05:56:06;94558.34;;;23.33;100.00
6134;BME280;3098;42.678;23.364;2023-07-31T05:58:34;94285.66;;;21.03;100.00
6134;BME280;3098;42.678;23.364;2023-07-31T06:01:03;94597.00;;;23.37;100.00
6134;BME280;3098;42.678;23.364;2023-07-31T06:03:31;94564.97;;;23.25;100.00
6134;BME280;3098;42.678;23.364;2023-07-31T06:05:59;94631.59;;;23.74;100.00
6134;BME280;3098;42.678;23.364;2023-07-31T06:08:27;94419.06;;;22.31;100.00
6134;BME280;3098;42.678;23.364;2023-07-31T06:10:54;94626.78;;;23.44;100.00
6134;BME280;3098;42.678;23.364;2023-07-31T06:13:22;94627.53;;;23.37;100.00
6134;BME280;3098;42.678;23.364;2023-07-31T06:15:50;94611.66;;;23.47;100.00
6134;BME280;3098;42.678;23.364;2023-07-31T06:18:20;94635.19;;;24.15;100.00
6134;BME280;3098;42.678;23.364;2023-07-31T06:20:47;94605.81;;;24.88;95.99
6134;BME280;3098;42.678;23.364;2023-07-31T06:23:19;94475.06;;;25.50;84.28
6134;BME280;3098;42.678;23.364;2023-07-31T06:25:47;94507.03;;;26.09;80.24
6134;BME280;3098;42.678;23.364;2023-07-31T06:28:15;94640.53;;;28.60;72.11
6134;BME280;3098;42.678;23.364;2023-07-31T06:30:43;94509.72;;;28.40;65.27
6134;BME280;3098;42.678;23.364;2023-07-31T06:33:11;94631.81;;;29.76;62.43
6134;BME280;3098;42.678;23.364;2023-07-31T06:35:47;94304.59;;;26.69;64.68
6134;BME280;3098;42.678;23.364;2023-07-31T06:38:21;94522.28;;;27.05;68.16
6134;BME280;3098;42.678;23.364;2023-07-31T06:40:49;94496.22;;;26.28;72.24
6134;BME280;3098;42.678;23.364;2023-07-31T06:43:17;94507.81;;;26.52;73.35
6134;BME280;3098;42.678;23.364;2023-07-31T06:45:45;94626.91;;;27.95;68.46
6134;BME280;3098;42.678;23.364;2023-07-31T06:48:15;94411.53;;;27.66;65.61
6134;BME280;3098;42.678;23.364;2023-07-31T06:50:43;94621.75;;;29.48;61.68
6134;BME280;3098;42.678;23.364;2023-07-31T06:53:13;94389.63;;;27.41;63.00
6134;BME280;3098;42.678;23.364;2023-07-31T06:55:42;94512.66;;;28.45;61.61
6134;BME280;3098;42.678;23.364;2023-07-31T06:58:10;94442.13;;;27.42;64.60
6134;BME280;3098;42.678;23.364;2023-07-31T07:00:38;94652.91;;;28.64;63.30
6134;BME280;3098;42.678;23.364;2023-07-31T07:03:07;94640.75;;;28.81;62.31
6134;BME280;3098;42.678;23.364;2023-07-31T07:05:37;94537.22;;;29.79;56.80
6134;BME280;3098;42.678;23.364;2023-07-31T07:08:05;94328.81;;;28.93;53.36
6134;BME280;3098;42.678;23.364;2023-07-31T07:10:37;94643.25;;;31.50;51.70
6134;BME280;3098;42.678;23.364;2023-07-31T07:13:04;94640.59;;;31.03;51.35
6134;BME280;3098;42.678;23.364;2023-07-31T07:15:33;94506.47;;;30.47;50.59
6134;BME280;3098;42.678;23.364;2023-07-31T07:18:01;94620.00;;;30.30;52.36
6134;BME280;3098;42.678;23.364;2023-07-31T07:20:29;94542.97;;;30.18;51.36
6134;BME280;3098;42.678;23.364;2023-07-31T07:22:57;94630.50;;;30.44;52.51
6134;BME280;3098;42.678;23.364;2023-07-31T07:25:25;94634.81;;;31.01;51.17
6134;BME280;3098;42.678;23.364;2023-07-31T07:27:56;94642.22;;;31.13;49.70
6134;BME280;3098;42.678;23.364;2023-07-31T07:30:24;94646.16;;;29.80;51.81
6134;BME280;3098;42.678;23.364;2023-07-31T07:32:52;94312.28;;;25.63;59.10
6134;BME280;3098;42.678;23.364;2023-07-31T07:35:19;94481.69;;;27.46;59.14
6134;BME280;3098;42.678;23.364;2023-07-31T07:37:48;94619.13;;;29.57;56.31
6134;BME280;3098;42.678;23.364;2023-07-31T07:40:17;94647.56;;;29.72;55.42
6134;BME280;3098;42.678;23.364;2023-07-31T07:42:44;94409.31;;;27.77;56.79
6134;BME280;3098;42.678;23.364;2023-07-31T07:45:13;94483.66;;;28.51;55.74
6134;BME280;3098;42.678;23.364;2023-07-31T07:47:41;94623.50;;;30.17;53.89
6134;BME280;3098;42.678;23.364;2023-07-31T07:50:09;94644.28;;;30.28;53.34
6134;BME280;3098;42.678;23.364;2023-07-31T07:52:37;94628.75;;;30.50;52.83
6134;BME280;3098;42.678;23.364;2023-07-31T07:55:05;94647.16;;;30.24;52.20
6134;BME280;3098;42.678;23.364;2023-07-31T07:57:33;94564.34;;;30.11;50.86
6134;BME280;3098;42.678;23.364;2023-07-31T08:00:01;94615.41;;;28.52;53.65
6134;BME280;3098;42.678;23.364;2023-07-31T08:02:33;94595.41;;;29.00;53.83
6134;BME280;3098;42.678;23.364;2023-07-31T08:05:01;94527.19;;;29.50;51.13
6134;BME280;3098;42.678;23.364;2023-07-31T08:07:29;94644.59;;;30.89;50.22
6134;BME280;3098;42.678;23.364;2023-07-31T08:09:56;94469.03;;;30.44;47.54
6134;BME280;3098;42.678;23.364;2023-07-31T08:12:23;94531.84;;;29.12;50.42
6134;BME280;3098;42.678;23.364;2023-07-31T08:14:50;94556.13;;;27.75;55.52
6134;BME280;3098;42.678;23.364;2023-07-31T08:17:18;94481.38;;;26.53;58.64
6134;BME280;3098;42.678;23.364;2023-07-31T08:19:47;94457.63;;;27.09;57.03
6134;BME280;3098;42.678;23.364;2023-07-31T08:22:15;94673.81;;;28.99;55.80
6134;BME280;3098;42.678;23.364;2023-07-31T08:24:43;94349.84;;;28.42;51.13
6134;BME280;3098;42.678;23.364;2023-07-31T08:27:11;94452.09;;;29.55;48.91
6134;BME280;3098;42.678;23.364;2023-07-31T08:29:38;94522.41;;;29.42;48.21
6134;BME280;3098;42.678;23.364;2023-07-31T08:32:07;94614.06;;;30.78;47.78
6134;BME280;3098;42.678;23.364;2023-07-31T08:34:34;94641.75;;;31.14;47.50
6134;BME280;3098;42.678;23.364;2023-07-31T08:37:03;94634.25;;;31.27;47.09
6134;BME280;3098;42.678;23.364;2023-07-31T08:39:31;94641.81;;;31.98;45.27
6134;BME280;3098;42.678;23.364;2023-07-31T08:41:59;94574.69;;;30.63;45.36
6134;BME280;3098;42.678;23.364;2023-07-31T08:44:27;94642.34;;;30.75;46.34
6134;BME280;3098;42.678;23.364;2023-07-31T08:46:57;94415.50;;;28.64;47.91
6134;BME280;3098;42.678;23.364;2023-07-31T08:49:26;94644.41;;;30.24;47.84
6134;BME280;3098;42.678;23.364;2023-07-31T08:51:54;94550.81;;;28.90;49.01
6134;BME280;3098;42.678;23.364;2023-07-31T08:54:25;94515.81;;;27.99;49.17
6134;BME280;3098;42.678;23.364;2023-07-31T08:56:56;94605.00;;;27.98;51.51
6134;BME280;3098;42.678;23.364;2023-07-31T08:59:27;94441.50;;;27.34;51.01
6134;BME280;3098;42.678;23.364;2023-07-31T09:01:58;94486.38;;;28.80;48.75
6134;BME280;3098;42.678;23.364;2023-07-31T09:04:32;94641.47;;;29.93;48.78
6134;BME280;3098;42.678;23.364;2023-07-31T09:07:03;94643.53;;;29.77;47.17
6134;BME280;3098;42.678;23.364;2023-07-31T09:09:33;94632.03;;;30.32;46.59
6134;BME280;3098;42.678;23.364;2023-07-31T09:12:02;94549.63;;;30.64;45.01
6134;BME280;3098;42.678;23.364;2023-07-31T09:14:36;94634.25;;;32.78;41.19
6134;BME280;3098;42.678;23.364;2023-07-31T09:17:05;94471.38;;;30.33;43.38
6134;BME280;3098;42.678;23.364;2023-07-31T09:19:36;94629.06;;;31.08;43.79
6134;BME280;3098;42.678;23.364;2023-07-31T09:22:06;94584.28;;;31.85;42.38
6134;BME280;3098;42.678;23.364;2023-07-31T09:24:36;94601.72;;;32.49;41.47
6134;BME280;3098;42.678;23.364;2023-07-31T09:27:03;94369.03;;;30.52;41.91
6134;BME280;3098;42.678;23.364;2023-07-31T09:29:31;94624.44;;;32.50;41.29
6134;BME280;3098;42.678;23.364;2023-07-31T09:31:58;94624.16;;;31.46;43.11
6134;BME280;3098;42.678;23.364;2023-07-31T09:34:36;94459.88;;;29.44;45.38
6134;BME280;3098;42.678;23.364;2023-07-31T09:37:05;94618.78;;;30.31;45.92
6134;BME280;3098;42.678;23.364;2023-07-31T09:39:47;94591.13;;;32.20;41.97
6134;BME280;3098;42.678;23.364;2023-07-31T09:42:25;94624.88;;;33.66;40.15
6134;BME280;3098;42.678;23.364;2023-07-31T09:45:07;94608.44;;;32.84;39.20
6134;BME280;3098;42.678;23.364;2023-07-31T09:47:35;94334.69;;;29.86;42.45
6134;BME280;3098;42.678;23.364;2023-07-31T09:50:07;94610.47;;;30.47;44.22
6134;BME280;3098;42.678;23.364;2023-07-31T09:52:38;94238.06;;;27.88;45.00
6134;BME280;3098;42.678;23.364;2023-07-31T09:55:08;94568.28;;;29.72;45.05
6134;BME280;3098;42.678;23.364;2023-07-31T09:57:37;94605.69;;;30.13;47.04
6134;BME280;3098;42.678;23.364;2023-07-31T10:00:08;94528.09;;;30.54;45.12
6134;BME280;3098;42.678;23.364;2023-07-31T10:02:38;94492.53;;;30.19;44.19
6134;BME280;3098;42.678;23.364;2023-07-31T10:05:07;94238.22;;;28.35;44.42
6134;BME280;3098;42.678;23.364;2023-07-31T10:07:38;94484.63;;;28.45;47.33
6134;BME280;3098;42.678;23.364;2023-07-31T10:10:09;94457.38;;;28.00;47.11
6134;BME280;3098;42.678;23.364;2023-07-31T10:12:38;94371.38;;;27.06;48.49
6134;BME280;3098;42.678;23.364;2023-07-31T10:15:09;94211.72;;;26.02;48.48
6134;BME280;3098;42.678;23.364;2023-07-31T10:17:38;94579.31;;;29.43;47.13
6134;BME280;3098;42.678;23.364;2023-07-31T10:20:07;94473.94;;;29.80;44.82
6134;BME280;3098;42.678;23.364;2023-07-31T10:22:37;94385.16;;;28.87;44.22
6134;BME280;3098;42.678;23.364;2023-07-31T10:25:08;94602.88;;;29.91;45.14
6134;BME280;3098;42.678;23.364;2023-07-31T10:27:37;94600.69;;;29.99;44.38
6134;BME280;3098;42.678;23.364;2023-07-31T10:30:08;94561.25;;;31.73;42.19
6134;BME280;3098;42.678;23.364;2023-07-31T10:32:39;94495.16;;;30.88;41.22
6134;BME280;3098;42.678;23.364;2023-07-31T10:35:09;94540.69;;;31.38;41.82
6134;BME280;3098;42.678;23.364;2023-07-31T10:37:38;94530.19;;;31.46;39.88
6134;BME280;3098;42.678;23.364;2023-07-31T10:40:12;94552.09;;;32.16;39.13
6134;BME280;3098;42.678;23.364;2023-07-31T10:42:46;94526.22;;;32.72;38.28
6134;BME280;3098;42.678;23.364;2023-07-31T10:45:24;94477.19;;;31.40;38.88
6134;BME280;3098;42.678;23.364;2023-07-31T10:47:58;94407.88;;;30.59;39.18
6134;BME280;3098;42.678;23.364;2023-07-31T10:50:29;94583.97;;;31.21;40.20
6134;BME280;3098;42.678;23.364;2023-07-31T10:53:00;94585.19;;;32.31;38.57
6134;BME280;3098;42.678;23.364;2023-07-31T10:55:33;94248.22;;;29.57;39.16
6134;BME280;3098;42.678;23.364;2023-07-31T10:58:09;94459.06;;;31.33;39.48
6134;BME280;3098;42.678;23.364;2023-07-31T11:00:38;94477.38;;;33.36;36.32
6134;BME280;3098;42.678;23.364;2023-07-31T11:03:10;94464.16;;;32.38;35.80
6134;BME280;3098;42.678;23.364;2023-07-31T11:05:42;94226.31;;;30.32;38.15
6134;BME280;3098;42.678;23.364;2023-07-31T11:08:14;94567.97;;;31.72;39.09
6134;BME280;3098;42.678;23.364;2023-07-31T11:10:48;94458.59;;;30.73;40.13
6134;BME280;3098;42.678;23.364;2023-07-31T11:13:16;94458.16;;;30.96;39.56
6134;BME280;3098;42.678;23.364;2023-07-31T11:15:45;94474.16;;;31.47;38.44
6134;BME280;3098;42.678;23.364;2023-07-31T11:18:13;94522.53;;;32.48;36.88
6134;BME280;3098;42.678;23.364;2023-07-31T11:20:42;94335.88;;;30.81;37.02
6134;BME280;3098;42.678;23.364;2023-07-31T11:23:11;94471.44;;;31.47;36.95
6134;BME280;3098;42.678;23.364;2023-07-31T11:25:39;94404.59;;;30.73;37.73
6134;BME280;3098;42.678;23.364;2023-07-31T11:28:10;94560.66;;;32.18;36.62
6134;BME280;3098;42.678;23.364;2023-07-31T11:30:39;94287.38;;;29.76;37.89
6134;BME280;3098;42.678;23.364;2023-07-31T11:33:10;94453.41;;;31.37;36.89
6134;BME280;3098;42.678;23.364;2023-07-31T11:35:43;94546.06;;;31.91;37.18
6134;BME280;3098;42.678;23.364;2023-07-31T11:38:12;94552.06;;;31.06;38.43
6134;BME280;3098;42.678;23.364;2023-07-31T11:40:44;94516.91;;;30.27;39.34
6134;BME280;3098;42.678;23.364;2023-07-31T11:43:14;94523.19;;;31.45;37.75
6134;BME280;3098;42.678;23.364;2023-07-31T11:45:45;94557.47;;;32.92;36.09
6134;BME280;3098;42.678;23.364;2023-07-31T11:48:23;94522.38;;;30.83;38.79
6134;BME280;3098;42.678;23.364;2023-07-31T11:50:53;94459.31;;;28.98;41.75
6134;BME280;3098;42.678;23.364;2023-07-31T11:53:25;94413.41;;;28.27;42.95
6134;BME280;3098;42.678;23.364;2023-07-31T11:55:54;94428.88;;;28.59;42.29
6134;BME280;3098;42.678;23.364;2023-07-31T11:58:24;94342.31;;;28.34;42.68
6134;BME280;3098;42.678;23.364;2023-07-31T12:00:53;94493.97;;;29.39;42.39
6134;BME280;3098;42.678;23.364;2023-07-31T12:03:22;94520.41;;;29.17;42.66
6134;BME280;3098;42.678;23.364;2023-07-31T12:05:50;94159.41;;;26.63;42.64
6134;BME280;3098;42.678;23.364;2023-07-31T12:08:21;94465.13;;;28.18;43.61
6134;BME280;3098;42.678;23.364;2023-07-31T12:10:50;94534.47;;;28.17;44.70
6134;BME280;3098;42.678;23.364;2023-07-31T12:13:21;94487.66;;;28.18;44.76
6134;BME280;3098;42.678;23.364;2023-07-31T12:15:54;94427.56;;;27.48;45.27
6134;BME280;3098;42.678;23.364;2023-07-31T12:18:24;94534.16;;;28.72;44.45
6134;BME280;3098;42.678;23.364;2023-07-31T12:20:54;94524.25;;;29.45;43.46
6134;BME280;3098;42.678;23.364;2023-07-31T12:23:23;94257.22;;;28.39;41.85
6134;BME280;3098;42.678;23.364;2023-07-31T12:26:00;94533.09;;;29.74;42.30
6134;BME280;3098;42.678;23.364;2023-07-31T12:28:28;94531.59;;;28.94;43.75
6134;BME280;3098;42.678;23.364;2023-07-31T12:31:03;94447.69;;;27.83;45.55
6134;BME280;3098;42.678;23.364;2023-07-31T12:33:33;94501.81;;;28.29;45.04
6134;BME280;3098;42.678;23.364;2023-07-31T12:36:02;94546.44;;;28.35;45.14
6134;BME280;3098;42.678;23.364;2023-07-31T12:38:30;94525.28;;;27.94;45.65
6134;BME280;3098;42.678;23.364;2023-07-31T12:40:58;94303.56;;;26.63;45.84
6134;BME280;3098;42.678;23.364;2023-07-31T12:43:35;94542.72;;;28.58;44.60
6134;BME280;3098;42.678;23.364;2023-07-31T12:46:06;94389.59;;;27.86;44.66
6134;BME280;3098;42.678;23.364;2023-07-31T12:48:36;94502.19;;;28.44;44.82
6134;BME280;3098;42.678;23.364;2023-07-31T12:51:05;94509.09;;;28.77;44.63
6134;BME280;3098;42.678;23.364;2023-07-31T12:53:34;94512.59;;;28.78;43.79
6134;BME280;3098;42.678;23.364;2023-07-31T12:56:03;94508.44;;;28.86;44.50
6134;BME280;3098;42.678;23.364;2023-07-31T12:58:32;94142.53;;;26.39;44.32
6134;BME280;3098;42.678;23.364;2023-07-31T13:00:59;94516.38;;;28.68;44.50
6134;BME280;3098;42.678;23.364;2023-07-31T13:03:31;94374.72;;;27.74;44.63
6134;BME280;3098;42.678;23.364;2023-07-31T13:05:58;94372.47;;;27.85;44.53
6134;BME280;3098;42.678;23.364;2023-07-31T13:08:25;94351.28;;;27.64;45.23
6134;BME280;3098;42.678;23.364;2023-07-31T13:10:53;94385.44;;;27.53;45.82
6134;BME280;3098;42.678;23.364;2023-07-31T13:13:21;94481.88;;;28.16;46.08